Time;durP1;ratioP1;P1;durP2;ratioP2;P2;SDS_P1;SDS_P2;PMS_P1;PMS_P2;Temp;Humidity;BMP_temperature;BMP_pressure;BME280_temperature;BME280_humidity;BME280_pressure;Samples;Min_cycle;Max_cycle;Signal;HPM_P1;HPM_P2
2022/06/18 00:00:39;;;;;;;;;15.00;12.50;;;;;26.44;45.76;101780.88;2407950;28;45242;-83
2022/06/18 00:01:50;;;;;;;;;12.75;12.75;;;;;26.43;45.72;101780.03;2403966;28;45544;-83
2022/06/18 00:03:00;;;;;;;;;14.75;13.25;;;;;26.40;46.17;101774.84;2401361;28;45271;-83
2022/06/18 00:04:16;;;;;;;;;12.25;11.75;;;;;26.39;45.93;101774.03;2401237;28;45390;-83
2022/06/18 00:05:34;;;;;;;;;14.25;11.25;;;;;26.39;45.93;101771.34;2401220;28;45357;-83
2022/06/18 00:06:48;;;;;;;;;13.75;12.00;;;;;26.38;45.69;101766.91;2401314;28;46281;-83
2022/06/18 00:07:58;;;;;;;;;11.25;11.25;;;;;26.36;46.30;101759.94;2401555;28;44804;-83
2022/06/18 00:09:11;;;;;;;;;12.00;12.00;;;;;26.34;46.29;101764.63;2401225;28;45333;-83
2022/06/18 00:10:27;;;;;;;;;15.50;14.25;;;;;26.33;45.65;101757.50;2401380;28;45207;-83
2022/06/18 00:13:41;;;;;;;;;15.25;14.00;;;;;26.31;46.51;101760.34;2401381;28;45202;-83
2022/06/18 00:14:51;;;;;;;;;13.25;12.25;;;;;26.29;46.10;101757.78;2401147;28;45417;-83
2022/06/18 00:16:02;;;;;;;;;14.25;14.00;;;;;26.26;46.38;101758.03;2400577;28;45289;-84
2022/06/18 00:17:15;;;;;;;;;13.00;13.00;;;;;26.26;45.99;101757.19;2400480;28;46377;-83
2022/06/18 00:18:26;;;;;;;;;10.75;9.75;;;;;26.24;46.69;101760.00;2401232;28;45343;-84
2022/06/18 00:19:36;;;;;;;;;10.25;10.00;;;;;26.23;46.84;101757.44;2401126;28;46459;-87
2022/06/18 00:20:47;;;;;;;;;14.00;11.50;;;;;26.21;46.86;101759.41;2401101;28;45203;-90
2022/06/18 00:21:57;;;;;;;;;13.00;11.25;;;;;26.20;46.03;101761.22;2431694;28;47141;-90
2022/06/18 00:23:15;;;;;;;;;13.75;12.75;;;;;26.19;46.25;101762.25;2407506;28;45444;-91
2022/06/18 00:24:26;;;;;;;;;14.75;14.00;;;;;26.15;46.11;101747.34;2433546;28;48169;-90
2022/06/18 00:25:39;;;;;;;;;16.00;14.50;;;;;26.14;46.56;101751.84;2404214;28;44710;-86
2022/06/18 00:26:49;;;;;;;;;18.25;16.25;;;;;26.14;46.35;101749.16;2391916;28;46530;-87
2022/06/18 00:28:01;;;;;;;;;16.50;12.75;;;;;26.12;46.98;101751.13;2410080;28;45279;-86
2022/06/18 00:29:15;;;;;;;;;15.00;13.25;;;;;26.12;46.22;101752.97;2406843;28;46403;-86
2022/06/18 00:30:28;;;;;;;;;16.25;14.00;;;;;26.10;46.22;101749.56;2391171;28;44596;-85
2022/06/18 00:31:39;;;;;;;;;13.25;13.00;;;;;26.09;46.23;101751.38;2399116;28;45463;-83
2022/06/18 00:32:49;;;;;;;;;14.00;13.25;;;;;26.07;46.57;101746.13;2401081;28;45435;-83
2022/06/18 00:33:59;;;;;;;;;17.25;15.50;;;;;26.09;46.21;101750.53;2401201;28;46075;-84
2022/06/18 00:35:12;;;;;;;;;14.75;13.50;;;;;26.06;46.24;101739.03;2401575;28;45385;-84
2022/06/18 00:36:22;;;;;;;;;13.25;12.25;;;;;26.05;46.67;101747.25;2401721;28;47292;-86
2022/06/18 00:37:33;;;;;;;;;15.25;14.50;;;;;26.04;46.76;101743.69;2428629;28;45322;-85
2022/06/18 00:38:47;;;;;;;;;13.50;12.00;;;;;26.04;46.88;101741.00;2411349;28;46986;-85
2022/06/18 00:39:58;;;;;;;;;13.75;13.50;;;;;26.05;46.56;101747.25;2402862;27;45323;-86
2022/06/18 00:41:15;;;;;;;;;11.75;11.75;;;;;26.02;46.93;101748.34;2404173;28;45432;-84
2022/06/18 00:42:32;;;;;;;;;18.50;16.50;;;;;26.02;46.36;101747.50;2402747;28;45216;-83
2022/06/18 00:43:49;;;;;;;;;15.25;15.25;;;;;26.00;46.79;101744.91;2402532;28;45301;-83
2022/06/18 00:45:01;;;;;;;;;13.75;11.75;;;;;26.00;46.58;101747.59;2402811;28;45200;-84
2022/06/18 00:46:18;;;;;;;;;13.75;13.75;;;;;25.99;46.23;101748.59;2402439;28;45445;-84
2022/06/18 00:48:01;;;;;;;;;14.75;13.75;;;;;25.96;46.24;101755.09;2408406;28;45221;-84
2022/06/18 00:49:30;;;;;;;;;15.00;14.00;;;;;25.96;46.63;101754.25;2403377;28;45269;-84
2022/06/18 00:50:50;;;;;;;;;15.75;14.50;;;;;25.93;46.90;101752.66;2402445;28;44690;-83
2022/06/18 00:52:09;;;;;;;;;15.75;13.00;;;;;25.93;46.84;101754.50;2402301;28;46730;-84
2022/06/18 00:53:31;;;;;;;;;14.25;14.25;;;;;25.91;46.97;101751.06;2406657;28;45228;-84
2022/06/18 00:54:51;;;;;;;;;17.50;15.75;;;;;25.91;46.99;101751.94;2408669;28;45216;-84
2022/06/18 00:56:09;;;;;;;;;20.00;16.25;;;;;25.90;47.17;101746.69;2401849;28;45268;-84
2022/06/18 00:57:35;;;;;;;;;15.50;14.00;;;;;25.90;47.21;101752.06;2401625;28;46231;-84
2022/06/18 00:59:02;;;;;;;;;14.50;14.50;;;;;25.89;47.19;101755.75;2399357;28;45255;-84
2022/06/18 01:00:48;;;;;;;;;15.75;13.25;;;;;25.90;46.85;101760.16;2401330;28;45615;-84
2022/06/18 01:01:59;;;;;;;;;14.00;11.75;;;;;25.87;46.96;101753.19;2382335;28;44702;-84
2022/06/18 01:03:35;;;;;;;;;13.25;12.75;;;;;25.87;46.72;101746.94;2382496;28;45378;-84
2022/06/18 01:04:46;;;;;;;;;11.50;10.50;;;;;25.85;47.29;101749.78;2398840;28;45468;-84
2022/06/18 01:06:02;;;;;;;;;9.75;9.25;;;;;25.85;47.47;101749.78;2402131;28;45461;-84
2022/06/18 01:07:38;;;;;;;;;16.50;15.50;;;;;25.85;47.16;101757.84;2402552;28;45296;-83
2022/06/18 01:08:57;;;;;;;;;14.50;14.50;;;;;25.82;46.96;101750.00;2401759;28;45406;-84
2022/06/18 01:10:19;;;;;;;;;13.75;13.75;;;;;25.82;47.04;101744.63;2402594;28;44609;-84
2022/06/18 01:11:33;;;;;;;;;14.50;13.25;;;;;25.82;46.79;101755.41;2402382;28;45335;-84
2022/06/18 01:12:44;;;;;;;;;13.25;12.50;;;;;25.80;46.98;101743.91;2402475;28;45321;-88
2022/06/18 01:13:56;;;;;;;;;14.25;13.75;;;;;25.79;47.28;101756.50;2402519;28;45419;-88
2022/06/18 01:15:10;;;;;;;;;12.50;11.25;;;;;25.79;47.33;101748.44;2412054;28;45234;-88
2022/06/18 01:16:21;;;;;;;;;13.25;13.25;;;;;25.78;47.38;101754.78;2402687;27;45459;-85
2022/06/18 01:17:33;;;;;;;;;15.25;14.00;;;;;25.80;47.56;101752.00;2401541;28;44803;-86
2022/06/18 01:18:46;;;;;;;;;13.75;13.00;;;;;25.79;47.17;101755.66;2401748;28;46649;-84
2022/06/18 01:19:59;;;;;;;;;12.00;12.00;;;;;25.77;47.52;101752.22;2402568;28;45218;-84
2022/06/18 01:21:40;;;;;;;;;11.00;11.00;;;;;25.78;47.21;101754.78;2401369;28;47854;-84
2022/06/18 01:23:27;;;;;;;;;15.50;12.75;;;;;25.77;47.13;101758.47;2402188;28;45553;-84
2022/06/18 01:24:40;;;;;;;;;11.75;11.75;;;;;25.74;47.47;101753.34;2402229;28;45462;-84
2022/06/18 01:25:51;;;;;;;;;14.50;11.75;;;;;25.73;47.45;101749.78;2402285;28;45395;-84
2022/06/18 01:27:02;;;;;;;;;12.75;12.25;;;;;25.73;47.56;101743.56;2402241;28;46321;-84
2022/06/18 01:28:16;;;;;;;;;13.25;12.75;;;;;25.72;47.16;101749.88;2401730;28;45217;-84
2022/06/18 01:29:27;;;;;;;;;11.50;10.50;;;;;25.73;47.23;101746.25;2399206;28;48140;-86
2022/06/18 01:30:39;;;;;;;;;14.00;14.00;;;;;25.71;47.17;101745.47;2399022;28;44761;-84
2022/06/18 01:31:51;;;;;;;;;12.75;12.50;;;;;25.69;47.29;101739.38;2401899;28;45228;-84
2022/06/18 01:33:03;;;;;;;;;12.00;11.50;;;;;25.69;47.42;101739.38;2401363;28;44835;-84
2022/06/18 01:34:15;;;;;;;;;15.25;12.75;;;;;25.69;47.27;101744.75;2402143;28;46353;-84
2022/06/18 01:35:25;;;;;;;;;15.25;15.25;;;;;25.68;47.84;101743.88;2410905;27;45279;-84
2022/06/18 01:36:36;;;;;;;;;15.75;14.00;;;;;25.70;47.85;101741.09;2404679;27;47262;-84
2022/06/18 01:37:47;;;;;;;;;14.50;13.00;;;;;25.68;47.40;101737.69;2401837;28;45266;-84
2022/06/18 01:38:58;;;;;;;;;12.75;12.50;;;;;25.67;47.49;101744.88;2401409;28;47324;-84
2022/06/18 01:40:12;;;;;;;;;14.00;14.00;;;;;25.66;47.23;101745.84;2401482;28;45264;-85
2022/06/18 01:42:59;;;;;;;;;15.75;14.25;;;;;25.65;48.19;101740.63;2405714;28;45232;-84
2022/06/18 01:44:16;;;;;;;;;17.00;15.25;;;;;25.64;48.01;101742.44;2402167;28;45771;-85
2022/06/18 01:45:32;;;;;;;;;14.50;14.00;;;;;25.65;47.50;101741.47;2402435;28;45199;-84
2022/06/18 01:46:46;;;;;;;;;15.75;14.75;;;;;25.63;47.68;101741.59;2400817;28;47310;-84
2022/06/18 01:48:10;;;;;;;;;14.75;13.50;;;;;25.62;47.69;101739.03;2401738;28;45271;-85
2022/06/18 01:49:27;;;;;;;;;15.25;14.50;;;;;25.61;48.14;101740.84;2402157;28;46571;-85
2022/06/18 01:50:50;;;;;;;;;18.75;17.25;;;;;25.61;48.27;101738.16;2402093;28;45370;-84
2022/06/18 01:52:03;;;;;;;;;16.75;16.00;;;;;25.61;48.06;101748.06;2410443;27;47323;-84
2022/06/18 01:53:19;;;;;;;;;13.00;13.00;;;;;25.60;48.25;101735.63;2408203;28;44699;-85
2022/06/18 01:54:35;;;;;;;;;15.50;14.75;;;;;25.60;48.11;101741.00;2402155;28;46676;-84
2022/06/18 01:55:52;;;;;;;;;13.00;12.50;;;;;25.57;48.07;101736.72;2401458;28;45296;-84
2022/06/18 01:57:10;;;;;;;;;16.00;16.00;;;;;25.58;48.14;101733.03;2395240;28;46755;-85
2022/06/18 01:58:38;;;;;;;;;14.00;13.50;;;;;25.59;48.28;101741.97;2401117;28;44748;-84
2022/06/18 01:59:53;;;;;;;;;16.25;16.00;;;;;25.56;48.10;101731.47;2402497;28;45778;-84
2022/06/18 02:01:09;;;;;;;;;14.50;14.50;;;;;25.56;48.37;101734.16;2407957;28;44773;-84
2022/06/18 02:02:19;;;;;;;;;14.75;14.00;;;;;25.56;48.30;101729.59;2404427;28;46964;-84
2022/06/18 02:03:30;;;;;;;;;18.25;17.50;;;;;25.55;47.95;101733.31;2398695;28;44716;-84
2022/06/18 02:04:41;;;;;;;;;20.00;17.75;;;;;25.55;47.84;101725.22;2401875;28;46477;-84
2022/06/18 02:05:51;;;;;;;;;22.75;18.00;;;;;25.54;48.23;101728.03;2401277;28;45382;-84
2022/06/18 02:07:06;;;;;;;;;16.50;14.50;;;;;25.53;48.40;101723.63;2398638;28;45445;-84
2022/06/18 02:08:18;;;;;;;;;17.00;17.00;;;;;25.52;48.47;101725.47;2393468;28;44597;-84
2022/06/18 02:09:34;;;;;;;;;15.75;14.75;;;;;25.52;48.06;101720.09;2401151;28;47315;-84
2022/06/18 02:10:58;;;;;;;;;20.75;19.75;;;;;25.50;47.84;101712.16;2401708;28;45270;-84
2022/06/18 02:12:17;;;;;;;;;15.50;14.25;;;;;25.50;48.34;101722.91;2401994;28;46386;-84
2022/06/18 02:13:34;;;;;;;;;19.00;17.00;;;;;25.49;48.82;101713.13;2402111;28;45158;-85
2022/06/18 02:14:49;;;;;;;;;15.25;14.25;;;;;25.48;48.20;101716.78;2402007;28;46223;-84
2022/06/18 02:16:04;;;;;;;;;20.75;17.75;;;;;25.48;48.41;101708.72;2402164;28;45235;-85
2022/06/18 02:17:20;;;;;;;;;18.75;18.75;;;;;25.48;48.72;101713.25;2401018;28;47179;-84
2022/06/18 02:18:33;;;;;;;;;20.50;19.00;;;;;25.46;48.99;101707.97;2404818;28;45542;-88
2022/06/18 02:19:52;;;;;;;;;20.75;19.25;;;;;25.45;48.94;101716.19;2410067;27;47381;-87
2022/06/18 02:21:07;;;;;;;;;17.50;16.50;;;;;25.44;48.93;101709.94;2404435;28;45376;-87
2022/06/18 02:22:20;;;;;;;;;19.75;19.00;;;;;25.45;48.53;101710.81;2405921;28;47987;-87
2022/06/18 02:23:31;;;;;;;;;17.75;17.25;;;;;25.44;48.86;101714.47;2408115;27;44800;-85
2022/06/18 02:24:41;;;;;;;;;20.25;19.25;;;;;25.43;48.69;101707.41;2401160;28;48250;-86
2022/06/18 02:25:52;;;;;;;;;19.25;17.50;;;;;25.42;48.97;101705.66;2401616;28;45252;-86
2022/06/18 02:27:03;;;;;;;;;20.00;17.75;;;;;25.42;48.91;101706.53;2400999;28;47138;-87
2022/06/18 02:28:26;;;;;;;;;21.50;19.75;;;;;25.41;49.17;101699.44;2399492;28;44789;-86
2022/06/18 02:29:37;;;;;;;;;19.00;18.00;;;;;25.39;48.98;101704.94;2400435;28;46188;-87
2022/06/18 02:30:47;;;;;;;;;18.75;16.00;;;;;25.40;48.85;101705.81;2401862;28;44558;-87
2022/06/18 02:32:01;;;;;;;;;18.25;16.00;;;;;25.39;48.86;101709.47;2398497;28;47203;-86
2022/06/18 02:33:34;;;;;;;;;18.50;17.50;;;;;25.38;49.35;101705.94;2405869;28;45306;-93
2022/06/18 02:34:44;;;;;;;;;14.75;14.75;;;;;25.37;49.16;101700.66;2401412;28;48065;-93
2022/06/18 02:35:59;;;;;;;;;16.25;13.25;;;;;25.35;49.43;101699.94;2394609;28;45359;-92
2022/06/18 02:37:20;;;;;;;;;14.50;14.50;;;;;25.35;49.22;101695.44;2404522;28;46185;-84
2022/06/18 02:38:31;;;;;;;;;15.25;12.50;;;;;25.34;49.43;101692.84;2402607;27;45429;-84
2022/06/18 02:40:00;;;;;;;;;15.50;15.00;;;;;25.33;49.46;101691.16;2409415;28;46930;-85
2022/06/18 02:41:11;;;;;;;;;18.00;16.75;;;;;25.33;49.24;101693.84;2401784;28;45291;-85
2022/06/18 02:42:22;;;;;;;;;14.50;14.00;;;;;25.31;49.52;101688.56;2401775;28;45326;-85
2022/06/18 02:43:33;;;;;;;;;18.50;16.75;;;;;25.29;49.77;101690.53;2410619;28;45389;-85
2022/06/18 02:44:45;;;;;;;;;15.25;14.25;;;;;25.29;49.89;101685.16;2400947;28;46619;-85
2022/06/18 02:45:56;;;;;;;;;14.00;12.75;;;;;25.26;49.60;101686.25;2394743;28;44638;-85
2022/06/18 02:47:10;;;;;;;;;11.50;11.50;;;;;25.28;49.96;101680.75;2401095;28;45246;-85
2022/06/18 02:48:26;;;;;;;;;15.25;14.00;;;;;25.26;49.63;101688.13;2401920;28;44759;-85
2022/06/18 02:49:42;;;;;;;;;16.25;15.25;;;;;25.25;49.72;101681.88;2401790;28;45609;-85
2022/06/18 02:50:55;;;;;;;;;15.75;15.50;;;;;25.25;49.81;101678.31;2401785;28;45349;-85
2022/06/18 02:52:06;;;;;;;;;13.75;13.75;;;;;25.25;49.66;101678.31;2408595;28;47761;-85
2022/06/18 02:53:17;;;;;;;;;16.50;14.75;;;;;25.23;49.85;101680.28;2409465;28;45181;-85
2022/06/18 02:54:27;;;;;;;;;16.25;14.00;;;;;25.22;50.09;101678.56;2401796;28;46378;-85
2022/06/18 02:55:42;;;;;;;;;18.25;14.50;;;;;25.21;49.73;101671.50;2401143;28;45161;-85
2022/06/18 02:56:52;;;;;;;;;14.00;13.00;;;;;25.20;49.81;101667.06;2401164;28;45657;-84
2022/06/18 02:58:23;;;;;;;;;11.25;11.00;;;;;25.20;50.28;101669.75;2399550;28;45823;-84
2022/06/18 02:59:34;;;;;;;;;15.75;14.00;;;;;25.17;49.94;101674.41;2392326;28;45354;-84
2022/06/18 03:00:51;;;;;;;;;16.00;13.50;;;;;25.17;50.03;101671.72;2400821;28;45353;-84
2022/06/18 03:02:01;;;;;;;;;15.00;14.75;;;;;25.15;49.84;101662.94;2399129;28;45587;-88
2022/06/18 03:03:14;;;;;;;;;15.50;15.00;;;;;25.15;50.21;101667.44;2401648;28;45353;-88
2022/06/18 03:04:25;;;;;;;;;16.25;13.25;;;;;25.14;49.93;101665.72;2443223;28;47558;-88
2022/06/18 03:05:35;;;;;;;;;13.00;13.00;;;;;25.14;50.28;101663.03;2402720;28;45415;-88
2022/06/18 03:06:45;;;;;;;;;15.00;13.50;;;;;25.12;50.04;101665.88;2401606;28;46333;-88
2022/06/18 03:07:56;;;;;;;;;14.25;13.25;;;;;25.12;50.16;101662.31;2401808;28;45306;-88
2022/06/18 03:09:06;;;;;;;;;14.25;13.50;;;;;25.11;50.34;101660.63;2401689;28;45243;-88
2022/06/18 03:12:06;;;;;;;;;15.25;14.25;;;;;25.09;50.57;101658.03;2391180;28;45314;-88
2022/06/18 03:13:20;;;;;;;;;15.00;13.75;;;;;25.09;50.26;101651.84;2401007;28;45282;-88
2022/06/18 03:14:30;;;;;;;;;18.00;14.25;;;;;25.06;49.90;101650.25;2394438;28;48124;-88
2022/06/18 03:15:40;;;;;;;;;13.75;13.50;;;;;25.05;49.90;101648.53;2401234;28;45529;-88
2022/06/18 03:16:51;;;;;;;;;14.75;12.50;;;;;25.04;50.07;101647.66;2401516;28;45290;-88
2022/06/18 03:18:03;;;;;;;;;14.00;11.75;;;;;25.02;49.90;101641.56;2410379;27;45295;-85
2022/06/18 03:19:29;;;;;;;;;15.50;14.00;;;;;25.02;50.11;101640.69;2400761;28;47290;-86
2022/06/18 03:21:17;;;;;;;;;6.25;6.25;;;;;25.03;50.39;101647.78;2401511;28;45239;-85
2022/06/18 03:22:27;;;;;;;;;14.50;14.50;;;;;24.99;50.27;101639.06;2401591;28;45436;-85
2022/06/18 03:23:37;;;;;;;;;14.50;12.75;;;;;24.99;50.28;101640.94;2401658;28;45224;-86
2022/06/18 03:24:48;;;;;;;;;17.25;14.75;;;;;24.97;50.56;101640.19;2401529;28;46049;-86
2022/06/18 03:25:58;;;;;;;;;14.25;14.00;;;;;24.95;50.60;101630.41;2401721;28;45199;-86
2022/06/18 03:27:10;;;;;;;;;17.25;16.00;;;;;24.95;50.52;101633.09;2401202;28;46403;-85
2022/06/18 03:28:22;;;;;;;;;14.50;14.50;;;;;24.95;50.33;101629.56;2399223;28;45403;-85
2022/06/18 03:29:33;;;;;;;;;16.75;12.75;;;;;24.94;50.52;101633.25;2400862;28;45360;-87
2022/06/18 03:30:44;;;;;;;;;16.25;14.50;;;;;24.93;50.45;101637.75;2401499;28;45393;-88
2022/06/18 03:31:54;;;;;;;;;19.75;15.75;;;;;24.93;50.18;101637.75;2399770;28;46509;-86
2022/06/18 03:33:05;;;;;;;;;16.00;15.00;;;;;24.93;50.76;101634.22;2400690;28;45383;-87
2022/06/18 03:34:15;;;;;;;;;13.50;13.00;;;;;24.91;50.77;101634.34;2402366;28;45330;-87
2022/06/18 03:35:25;;;;;;;;;14.75;14.75;;;;;24.91;50.78;101628.97;2394731;28;45286;-87
2022/06/18 03:36:36;;;;;;;;;15.00;14.25;;;;;24.90;50.68;101635.31;2410195;28;47542;-87
2022/06/18 03:37:46;;;;;;;;;14.50;14.25;;;;;24.89;50.67;101628.22;2407645;28;44721;-85
2022/06/18 03:38:56;;;;;;;;;14.50;13.50;;;;;24.89;50.70;101630.91;2400919;28;45413;-86
2022/06/18 03:40:12;;;;;;;;;16.00;13.75;;;;;24.88;51.02;101634.59;2401354;28;45154;-85
2022/06/18 03:41:23;;;;;;;;;14.00;13.00;;;;;24.86;51.27;101628.47;2401489;28;45664;-86
2022/06/18 03:42:33;;;;;;;;;14.25;13.25;;;;;24.84;50.79;101631.28;2401528;28;45315;-85
2022/06/18 03:43:44;;;;;;;;;12.75;11.75;;;;;24.86;50.99;101625.78;2410109;28;46198;-86
2022/06/18 03:44:54;;;;;;;;;14.00;13.00;;;;;24.84;50.86;101627.75;2400756;28;45179;-86
2022/06/18 03:46:08;;;;;;;;;13.75;13.75;;;;;24.82;51.18;101625.16;2403342;28;46980;-86
2022/06/18 03:47:18;;;;;;;;;15.50;12.00;;;;;24.82;50.85;101624.31;2400685;28;44690;-83
2022/06/18 03:48:40;;;;;;;;;15.25;14.25;;;;;24.82;50.94;101619.78;2400957;28;46149;-83
2022/06/18 03:49:50;;;;;;;;;12.00;12.00;;;;;24.81;51.20;101620.78;2401460;28;44770;-84
2022/06/18 03:51:00;;;;;;;;;14.00;14.00;;;;;24.79;51.34;101617.34;2401312;28;45386;-88
2022/06/18 03:52:11;;;;;;;;;17.75;15.25;;;;;24.80;50.88;101626.28;2401180;28;45401;-87
2022/06/18 03:53:22;;;;;;;;;13.25;13.00;;;;;24.80;50.99;101621.75;2401296;28;45353;-88
2022/06/18 03:54:33;;;;;;;;;14.25;13.00;;;;;24.80;51.40;101623.59;2401487;28;45286;-87
2022/06/18 03:55:44;;;;;;;;;16.50;14.00;;;;;24.79;51.32;101620.03;2401499;28;46528;-87
2022/06/18 03:56:55;;;;;;;;;14.25;13.50;;;;;24.79;51.07;101617.34;2401081;28;44684;-87
2022/06/18 03:58:05;;;;;;;;;14.75;13.75;;;;;24.80;51.36;101624.44;2400293;28;46426;-87
2022/06/18 03:59:16;;;;;;;;;13.50;13.50;;;;;24.80;51.32;101618.22;2400280;28;45256;-88
2022/06/18 04:00:26;;;;;;;;;13.00;12.00;;;;;24.79;51.01;101616.50;2392747;28;46353;-88
2022/06/18 04:01:40;;;;;;;;;15.50;15.25;;;;;24.79;51.05;101620.03;2398730;28;45347;-87
2022/06/18 04:02:50;;;;;;;;;14.75;13.00;;;;;24.79;50.88;101620.03;2400679;28;45573;-89
2022/06/18 04:04:01;;;;;;;;;16.25;15.25;;;;;24.80;51.03;101618.22;2428605;28;45447;-90
2022/06/18 04:05:11;;;;;;;;;14.75;14.00;;;;;24.79;51.07;101620.03;2411968;28;46287;-90
2022/06/18 04:06:23;;;;;;;;;14.50;14.50;;;;;24.80;51.08;101628.97;2394227;28;45437;-90
2022/06/18 04:07:35;;;;;;;;;12.75;11.75;;;;;24.79;50.83;101619.22;2399233;28;45568;-90
2022/06/18 04:08:46;;;;;;;;;14.25;12.75;;;;;24.80;51.08;101620.91;2401408;28;45278;-90
2022/06/18 04:10:01;;;;;;;;;16.75;14.25;;;;;24.79;50.65;101624.56;2402427;28;46413;-91
2022/06/18 04:11:12;;;;;;;;;13.00;13.00;;;;;24.79;51.07;101620.03;2402955;28;45260;-89
2022/06/18 04:12:22;;;;;;;;;15.25;13.00;;;;;24.81;50.38;101626.16;2401962;28;47522;-90
2022/06/18 04:13:33;;;;;;;;;13.25;12.75;;;;;24.81;50.71;101617.25;2402184;28;45437;-89
2022/06/18 04:14:44;;;;;;;;;13.00;11.75;;;;;24.80;51.00;101616.38;2401639;28;47970;-89
2022/06/18 04:15:55;;;;;;;;;15.00;13.75;;;;;24.83;51.25;101616.13;2392855;28;45294;-90
2022/06/18 04:17:06;;;;;;;;;14.25;13.75;;;;;24.82;50.82;101610.88;2391838;28;47008;-90
2022/06/18 04:18:16;;;;;;;;;16.25;14.75;;;;;24.82;51.53;101610.88;2395198;28;45329;-90
2022/06/18 04:19:26;;;;;;;;;13.25;12.25;;;;;24.82;51.13;101614.41;2402329;28;46315;-90
2022/06/18 04:20:37;;;;;;;;;12.50;11.50;;;;;24.81;50.98;101609.19;2411495;28;45275;-90
2022/06/18 04:21:47;;;;;;;;;16.25;13.25;;;;;24.82;51.04;101613.56;2403386;28;46525;-90
2022/06/18 04:22:58;;;;;;;;;16.00;14.50;;;;;24.82;51.20;101610.88;2402840;28;45238;-90
2022/06/18 04:24:08;;;;;;;;;14.75;13.75;;;;;24.81;51.20;101610.03;2411314;28;47194;-90
2022/06/18 04:25:19;;;;;;;;;12.75;12.00;;;;;24.82;51.20;101616.25;2411584;27;45345;-90
2022/06/18 04:26:30;;;;;;;;;16.00;13.00;;;;;24.83;51.20;101615.28;2408779;27;46293;-90
2022/06/18 04:27:40;;;;;;;;;13.25;12.25;;;;;24.82;51.18;101613.56;2408203;27;45436;-88
2022/06/18 04:28:51;;;;;;;;;11.25;11.25;;;;;24.82;51.24;101610.88;2401609;28;45306;-90
2022/06/18 04:30:01;;;;;;;;;3.50;0.00;;;;;24.81;51.11;101611.88;2402755;28;45332;-90
2022/06/18 04:31:11;;;;;;;;;12.50;12.25;;;;;24.82;51.25;101611.72;2401372;28;47068;-89
2022/06/18 04:32:22;;;;;;;;;14.50;13.75;;;;;24.82;50.66;101605.50;2398012;28;45477;-85
2022/06/18 04:33:33;;;;;;;;;15.50;15.50;;;;;24.80;50.52;101594.88;2402193;28;45348;-85
2022/06/18 04:34:43;;;;;;;;;14.00;13.50;;;;;24.82;51.05;101597.44;2402595;28;45348;-85
2022/06/18 04:35:55;;;;;;;;;14.75;14.00;;;;;24.82;51.48;101592.91;2402394;28;45602;-86
2022/06/18 04:37:06;;;;;;;;;14.25;13.25;;;;;24.85;50.95;101602.56;2402693;28;45411;-86
2022/06/18 04:38:16;;;;;;;;;15.25;15.25;;;;;24.84;50.98;101595.50;2411503;28;47303;-93
2022/06/18 04:39:27;;;;;;;;;13.50;12.50;;;;;24.84;51.02;101593.63;2395668;28;45173;-85
2022/06/18 04:40:38;;;;;;;;;15.00;14.00;;;;;24.86;51.26;101603.44;2401811;28;45612;-86
2022/06/18 04:41:48;;;;;;;;;15.00;15.00;;;;;24.88;51.85;101596.09;2402651;28;44615;-85
2022/06/18 04:43:01;;;;;;;;;16.00;15.25;;;;;24.87;51.59;101599.75;2402596;28;46290;-85
2022/06/18 04:44:11;;;;;;;;;13.75;13.25;;;;;24.86;52.26;101601.59;2402609;28;44831;-85
2022/06/18 04:45:22;;;;;;;;;14.00;14.00;;;;;24.88;50.99;101602.31;2402562;28;46110;-85
2022/06/18 04:46:32;;;;;;;;;14.50;14.25;;;;;24.88;51.67;101601.47;2402407;28;45387;-85
2022/06/18 04:47:43;;;;;;;;;15.00;15.00;;;;;24.86;52.05;101598.03;2402499;28;46252;-85
2022/06/18 04:48:53;;;;;;;;;11.00;10.75;;;;;24.87;51.58;101595.22;2402645;28;45211;-86
2022/06/18 04:50:04;;;;;;;;;12.50;12.50;;;;;24.88;51.55;101602.31;2402451;28;45453;-85
2022/06/18 04:51:15;;;;;;;;;17.75;15.75;;;;;24.89;52.11;101604.00;2402517;28;45264;-85
2022/06/18 04:52:25;;;;;;;;;14.00;14.00;;;;;24.88;52.11;101602.31;2402317;28;45504;-85
2022/06/18 04:53:35;;;;;;;;;13.25;13.25;;;;;24.89;52.15;101608.56;2402494;28;45274;-85
2022/06/18 04:54:46;;;;;;;;;13.00;12.75;;;;;24.89;51.87;101604.00;2402559;28;45597;-86
2022/06/18 04:55:56;;;;;;;;;14.50;14.25;;;;;24.90;52.20;101605.75;2402556;28;45225;-84
2022/06/18 04:57:07;;;;;;;;;13.50;12.75;;;;;24.90;51.91;101608.44;2396699;28;46262;-85
2022/06/18 04:58:17;;;;;;;;;14.50;11.50;;;;;24.90;51.21;101608.44;2401056;28;45421;-86
2022/06/18 04:59:27;;;;;;;;;16.00;14.00;;;;;24.92;52.38;101611.84;2400774;28;46091;-85
2022/06/18 05:00:39;;;;;;;;;14.25;13.00;;;;;24.92;51.82;101614.53;2392879;28;44598;-86
2022/06/18 05:02:02;;;;;;;;;14.25;12.25;;;;;24.93;51.97;101615.38;2402222;28;45236;-86
2022/06/18 05:03:17;;;;;;;;;16.00;15.00;;;;;24.93;52.12;101621.63;2401606;28;45456;-85
2022/06/18 05:04:27;;;;;;;;;16.50;13.00;;;;;24.95;52.33;101616.13;2401888;28;45453;-85
2022/06/18 05:05:38;;;;;;;;;13.75;13.75;;;;;24.96;52.64;101620.53;2402341;28;45196;-86
2022/06/18 05:06:48;;;;;;;;;17.00;15.25;;;;;24.96;52.08;101617.84;2402500;28;45437;-86
2022/06/18 05:07:58;;;;;;;;;15.75;15.00;;;;;24.97;52.37;101615.97;2402464;28;45179;-85
2022/06/18 05:09:08;;;;;;;;;15.25;15.00;;;;;24.98;52.33;101617.69;2402377;28;45197;-85
2022/06/18 05:10:19;;;;;;;;;15.75;13.75;;;;;24.98;51.95;101623.09;2410298;28;45279;-85
2022/06/18 05:11:29;;;;;;;;;13.50;13.50;;;;;24.99;52.14;101614.88;2408696;28;45250;-86
2022/06/18 05:12:41;;;;;;;;;11.75;11.75;;;;;25.00;51.56;101618.47;2402448;28;45222;-85
2022/06/18 05:13:51;;;;;;;;;13.75;13.00;;;;;25.02;51.25;101613.81;2402254;28;45375;-85
2022/06/18 05:15:02;;;;;;;;;13.25;13.25;;;;;25.01;51.65;101612.97;2402548;28;45165;-86
2022/06/18 05:16:13;;;;;;;;;15.00;15.00;;;;;25.02;52.50;101611.13;2401379;28;47195;-85
2022/06/18 05:17:30;;;;;;;;;12.25;12.25;;;;;25.05;52.06;101613.56;2395029;28;45517;-86
2022/06/18 05:18:44;;;;;;;;;15.00;15.00;;;;;25.05;52.49;101614.44;2401763;28;46351;-86
2022/06/18 05:19:56;;;;;;;;;13.75;13.50;;;;;25.06;52.35;101607.22;2402401;27;45173;-85
2022/06/18 05:21:06;;;;;;;;;15.50;14.00;;;;;25.06;52.69;101604.53;2400759;28;47423;-85
2022/06/18 05:22:17;;;;;;;;;13.25;12.50;;;;;25.10;52.52;101610.50;2401893;28;44735;-86
2022/06/18 05:23:28;;;;;;;;;15.00;14.25;;;;;25.11;52.27;101612.22;2402197;28;45562;-86
2022/06/18 05:24:39;;;;;;;;;14.25;14.25;;;;;25.11;51.80;101607.69;2408292;28;45460;-86
2022/06/18 05:25:54;;;;;;;;;15.50;15.50;;;;;25.12;52.13;101603.16;2399307;28;45361;-86
2022/06/18 05:27:06;;;;;;;;;16.00;13.50;;;;;25.14;51.76;101607.44;2393665;28;45453;-84
2022/06/18 05:28:16;;;;;;;;;15.75;13.25;;;;;25.16;51.30;101610.84;2396253;28;45274;-85
2022/06/18 05:29:27;;;;;;;;;17.25;14.25;;;;;25.17;51.82;101607.19;2392991;28;44649;-86
2022/06/18 05:30:38;;;;;;;;;11.75;11.75;;;;;25.17;51.81;101607.19;2398695;28;46344;-86
2022/06/18 05:31:48;;;;;;;;;15.25;14.00;;;;;25.21;51.51;101612.31;2406846;28;45246;-86
2022/06/18 05:32:59;;;;;;;;;13.25;13.25;;;;;25.21;51.08;101604.25;2400164;28;45244;-86
2022/06/18 05:34:10;;;;;;;;;14.50;14.25;;;;;25.20;51.32;101605.22;2392903;28;45276;-86
2022/06/18 05:35:21;;;;;;;;;13.75;13.75;;;;;25.23;51.18;101604.97;2392681;28;45375;-86
2022/06/18 05:36:31;;;;;;;;;14.25;14.25;;;;;25.23;51.27;101605.81;2392066;28;44701;-85
2022/06/18 05:37:42;;;;;;;;;15.50;13.50;;;;;25.23;51.01;101599.59;2414497;28;46477;-86
2022/06/18 05:38:53;;;;;;;;;14.25;13.50;;;;;25.23;51.10;101599.59;2392839;28;44920;-86
2022/06/18 05:40:04;;;;;;;;;14.75;12.75;;;;;25.25;50.65;101597.63;2392808;28;45476;-84